Bourbonnais, Illinois
Current Conditions -  °F | °C
As of 10:35 AM on Friday 19 Dec 2014 (Local Time) from KIKK Reporting Station
Overcast Overcast  
Wind Chill: 28°   Ceiling: 2700
Heat Index: 28°   Visibility: 10mi
Dew Point: 24°   Wind: 0mph
Humidity: 84%   Direction: NA
Pressure: 30.34"   Gusts: NA
Location:  41.15°N, 87.88°W
Report Text: KIKK 191635Z AUTO 00000KT 10SM OVC027 M02/M05 A3034 RMK AO2 T10241047
Loading
Personal Weather Stations






























Interactive Weather Map New forecast layout! Learn more

10-Day Weather Forecast

Advertisements
Track Severe Weather on mobile